createdAt,value
2018-12-21T00:02:15.210Z,5.07
2018-12-21T00:04:41.706Z,4.98
2018-12-21T00:07:09.747Z,4.84
2018-12-21T00:09:36.358Z,4.85
2018-12-21T00:12:03.224Z,4.79
2018-12-21T00:14:29.979Z,4.93
2018-12-21T00:16:57.413Z,4.97
2018-12-21T00:19:24.175Z,5.08
2018-12-21T00:21:51.295Z,4.91
2018-12-21T00:24:19.437Z,5.10
2018-12-21T00:26:45.993Z,5.07
2018-12-21T00:29:13.361Z,5.07
2018-12-21T00:31:40.427Z,5.11
2018-12-21T00:34:07.618Z,4.98
2018-12-21T00:36:35.932Z,4.86
2018-12-21T00:39:03.777Z,4.77
2018-12-21T00:41:33.310Z,4.64
2018-12-21T00:43:59.910Z,4.82
2018-12-21T00:46:27.145Z,4.66
2018-12-21T00:48:54.331Z,4.12
2018-12-21T00:51:21.476Z,3.89
2018-12-21T00:53:48.697Z,4.00
2018-12-21T00:56:15.237Z,3.92
2018-12-21T00:58:42.402Z,4.08
2018-12-21T01:01:08.949Z,4.15
2018-12-21T01:03:35.483Z,4.16
2018-12-21T01:06:02.078Z,4.28
2018-12-21T01:08:29.624Z,4.34
2018-12-21T01:11:02.732Z,4.47
2018-12-21T01:13:30.036Z,4.78
2018-12-21T01:15:56.585Z,5.10
2018-12-21T01:18:24.079Z,5.10
2018-12-21T01:20:51.451Z,5.29
2018-12-21T01:23:18.084Z,5.66
2018-12-21T01:25:44.583Z,5.50
2018-12-21T01:28:11.631Z,5.47
2018-12-21T01:33:13.485Z,5.45
2018-12-21T01:35:41.857Z,5.45
2018-12-21T01:38:10.968Z,5.41
2018-12-21T01:40:37.599Z,5.41
2018-12-21T01:43:05.724Z,5.17
2018-12-21T01:45:33.984Z,5.04
2018-12-21T01:48:02.267Z,4.67
2018-12-21T01:50:29.384Z,3.79
2018-12-21T01:52:57.813Z,3.48
2018-12-21T01:55:25.689Z,3.45
2018-12-21T01:57:53.902Z,3.25
2018-12-21T02:00:21.392Z,3.31
2018-12-21T02:02:48.731Z,3.35
2018-12-21T02:05:16.864Z,3.53
2018-12-21T02:07:44.202Z,3.29
2018-12-21T02:10:13.166Z,3.50
2018-12-21T02:12:43.209Z,3.86
2018-12-21T02:15:09.846Z,4.01
2018-12-21T02:17:36.825Z,3.49
2018-12-21T02:20:03.327Z,3.24
2018-12-21T02:22:32.842Z,3.19
2018-12-21T02:25:00.419Z,2.84
2018-12-21T02:27:29.251Z,2.72
2018-12-21T02:29:56.565Z,2.40
2018-12-21T02:32:24.066Z,2.30
2018-12-21T02:34:50.712Z,1.74
2018-12-21T02:37:18.692Z,2.13
2018-12-21T02:39:46.211Z,2.69
2018-12-21T02:42:15.244Z,2.14
2018-12-21T02:44:43.526Z,2.26
2018-12-21T02:49:44.038Z,2.25
2018-12-21T02:52:12.887Z,1.97
2018-12-21T02:54:40.654Z,1.80
2018-12-21T02:57:08.547Z,1.86
2018-12-21T02:59:36.388Z,1.83
2018-12-21T03:02:04.263Z,2.22
2018-12-21T03:04:31.342Z,2.29
2018-12-21T03:06:59.510Z,2.28
2018-12-21T03:09:27.523Z,2.21
2018-12-21T03:11:55.743Z,2.40
2018-12-21T03:14:26.347Z,2.40
2018-12-21T03:16:53.612Z,2.79
2018-12-21T03:19:22.123Z,2.88
2018-12-21T03:21:49.876Z,3.13
2018-12-21T03:24:17.378Z,3.24
2018-12-21T03:26:46.824Z,3.38
2018-12-21T03:29:15.345Z,2.92
2018-12-21T03:31:42.897Z,2.41
2018-12-21T03:34:10.435Z,2.13
2018-12-21T03:36:37.947Z,2.21
2018-12-21T03:39:05.789Z,2.45
2018-12-21T03:41:34.306Z,2.56
2018-12-21T03:44:02.260Z,2.43
2018-12-21T03:46:29.648Z,2.64
2018-12-21T03:48:56.974Z,2.97
2018-12-21T03:51:25.175Z,2.49
2018-12-21T03:53:52.799Z,2.77
2018-12-21T03:56:19.808Z,2.98
2018-12-21T03:58:47.765Z,3.12
2018-12-21T04:01:15.996Z,2.99
2018-12-21T04:03:44.270Z,2.73
2018-12-21T04:06:11.830Z,2.56
2018-12-21T04:08:39.095Z,2.68
2018-12-21T04:11:06.632Z,2.15
2018-12-21T04:13:34.066Z,2.48
2018-12-21T04:16:04.223Z,2.45
2018-12-21T04:23:34.753Z,2.20
2018-12-21T04:26:01.473Z,2.18
2018-12-21T04:28:28.310Z,2.07
2018-12-21T04:30:54.846Z,2.64
2018-12-21T04:33:21.580Z,2.31
2018-12-21T04:35:48.119Z,2.15
2018-12-21T04:38:15.053Z,2.20
2018-12-21T04:40:41.495Z,2.17
2018-12-21T04:43:07.981Z,2.36
2018-12-21T04:45:34.451Z,2.41
2018-12-21T04:48:00.909Z,2.24
2018-12-21T04:50:27.594Z,2.37
2018-12-21T04:52:54.238Z,2.33
2018-12-21T04:55:21.000Z,2.49
2018-12-21T04:57:47.455Z,2.40
2018-12-21T05:00:13.913Z,2.12
2018-12-21T05:02:40.363Z,2.07
2018-12-21T05:05:06.874Z,2.20
2018-12-21T05:07:33.319Z,2.35
2018-12-21T05:09:59.927Z,2.25
2018-12-21T05:12:26.429Z,2.35
2018-12-21T05:14:53.121Z,2.51
2018-12-21T05:17:19.612Z,2.61
2018-12-21T05:19:46.106Z,2.69
2018-12-21T05:22:12.618Z,2.77
2018-12-21T05:24:39.197Z,2.65
2018-12-21T05:27:05.792Z,2.53
2018-12-21T05:29:32.288Z,2.65
2018-12-21T05:31:58.775Z,2.77
2018-12-21T05:34:25.225Z,3.00
2018-12-21T05:36:51.704Z,2.92
2018-12-21T05:39:18.133Z,3.11
2018-12-21T05:41:45.683Z,2.98
2018-12-21T05:44:12.282Z,3.02
2018-12-21T05:46:38.718Z,2.88
2018-12-21T05:49:05.191Z,3.24
2018-12-21T05:51:31.768Z,3.06
2018-12-21T05:53:58.872Z,3.13
2018-12-21T05:56:25.372Z,3.07
2018-12-21T05:58:51.864Z,3.18
2018-12-21T06:01:18.349Z,3.20
2018-12-21T06:03:46.061Z,3.14
2018-12-21T06:06:12.587Z,3.16
2018-12-21T06:08:39.064Z,3.42
2018-12-21T06:11:05.787Z,3.34
2018-12-21T06:13:32.530Z,3.35
2018-12-21T06:15:59.080Z,3.44
2018-12-21T06:18:25.615Z,3.29
2018-12-21T06:20:52.088Z,3.03
2018-12-21T06:23:18.544Z,3.17
2018-12-21T06:25:46.903Z,3.24
2018-12-21T06:28:14.245Z,3.51
2018-12-21T06:30:40.711Z,3.40
2018-12-21T06:33:07.216Z,3.64
2018-12-21T06:35:34.497Z,3.37
2018-12-21T06:38:00.975Z,3.20
2018-12-21T06:40:28.127Z,3.49
2018-12-21T06:42:54.648Z,3.36
2018-12-21T06:45:21.174Z,3.24
2018-12-21T06:47:47.620Z,3.39
2018-12-21T06:50:14.090Z,3.36
2018-12-21T06:52:40.547Z,3.54
2018-12-21T06:55:06.987Z,3.69
2018-12-21T06:57:33.453Z,3.71
2018-12-21T06:59:59.908Z,3.48
2018-12-21T07:02:26.383Z,3.56
2018-12-21T07:04:52.854Z,3.51
2018-12-21T07:07:19.344Z,3.42
2018-12-21T07:09:46.820Z,3.36
2018-12-21T07:12:13.296Z,3.37
2018-12-21T07:14:39.898Z,3.43
2018-12-21T07:17:06.354Z,3.50
2018-12-21T07:19:32.864Z,3.50
2018-12-21T07:21:59.321Z,3.67
2018-12-21T07:26:57.618Z,3.43
2018-12-21T07:29:24.066Z,3.26
2018-12-21T07:31:50.521Z,3.34
2018-12-21T07:34:17.108Z,3.37
2018-12-21T07:36:43.539Z,3.13
2018-12-21T07:39:09.998Z,3.00
2018-12-21T07:41:36.456Z,3.22
2018-12-21T07:44:02.892Z,3.58
2018-12-21T07:46:29.344Z,3.73
2018-12-21T07:48:55.798Z,3.59
2018-12-21T07:51:22.249Z,3.77
2018-12-21T07:53:48.717Z,3.87
2018-12-21T07:56:15.192Z,3.60
2018-12-21T07:58:41.636Z,3.82
2018-12-21T08:01:08.109Z,4.15
2018-12-21T08:03:34.565Z,4.55
2018-12-21T08:06:01.014Z,4.52
2018-12-21T08:08:27.478Z,4.49
2018-12-21T08:10:53.923Z,4.67
2018-12-21T08:13:20.404Z,4.82
2018-12-21T08:15:48.907Z,4.60
2018-12-21T08:18:15.366Z,4.47
2018-12-21T08:20:42.743Z,4.45
2018-12-21T08:23:09.223Z,4.75
2018-12-21T08:25:35.699Z,4.69
2018-12-21T08:28:02.165Z,4.87
2018-12-21T08:30:28.636Z,5.21
2018-12-21T08:32:55.118Z,5.27
2018-12-21T08:35:21.589Z,5.45
2018-12-21T08:37:48.042Z,5.66
2018-12-21T08:40:15.064Z,5.56
2018-12-21T08:42:41.581Z,5.84
2018-12-21T08:45:08.055Z,5.89
2018-12-21T08:47:34.613Z,6.05
2018-12-21T08:50:01.180Z,6.22
2018-12-21T08:52:27.788Z,6.07
2018-12-21T08:54:54.484Z,5.77
2018-12-21T08:57:21.108Z,5.88
2018-12-21T08:59:48.248Z,5.83
2018-12-21T09:02:14.753Z,6.36
2018-12-21T09:04:41.237Z,6.52
2018-12-21T09:07:07.764Z,6.51
2018-12-21T09:09:34.388Z,6.43
2018-12-21T09:12:00.840Z,6.30
2018-12-21T09:14:27.269Z,6.61
2018-12-21T09:16:53.765Z,6.64
2018-12-21T09:19:20.243Z,6.54
2018-12-21T09:21:46.887Z,6.13
2018-12-21T09:24:13.343Z,6.30
2018-12-21T09:26:39.822Z,6.10
2018-12-21T09:29:06.322Z,6.38
2018-12-21T09:31:32.785Z,6.51
2018-12-21T09:33:59.241Z,6.51
2018-12-21T09:36:25.678Z,6.27
2018-12-21T09:38:52.349Z,6.49
2018-12-21T09:41:18.871Z,6.89
2018-12-21T09:43:45.343Z,6.85
2018-12-21T09:46:11.791Z,7.03
2018-12-21T09:48:38.504Z,7.38
2018-12-21T09:51:04.954Z,7.41
2018-12-21T09:53:31.644Z,7.25
2018-12-21T09:55:59.834Z,7.08
2018-12-21T09:58:31.575Z,7.07
2018-12-21T10:00:58.021Z,7.13
2018-12-21T10:03:24.486Z,7.30
2018-12-21T10:05:50.961Z,7.22
2018-12-21T10:08:17.426Z,6.74
2018-12-21T10:10:43.879Z,7.08
2018-12-21T10:13:10.343Z,7.16
2018-12-21T10:15:36.800Z,7.52
2018-12-21T10:18:03.315Z,7.38
2018-12-21T10:20:29.763Z,7.32
2018-12-21T10:22:56.281Z,7.21
2018-12-21T10:25:22.737Z,7.45
2018-12-21T10:27:49.374Z,7.55
2018-12-21T10:30:15.850Z,7.36
2018-12-21T10:32:42.319Z,7.44
2018-12-21T10:35:08.798Z,7.18
2018-12-21T10:37:35.248Z,7.49
2018-12-21T10:40:01.846Z,7.38
2018-12-21T10:42:29.230Z,7.41
2018-12-21T10:44:55.757Z,7.46
2018-12-21T10:47:23.093Z,7.35
2018-12-21T10:49:49.647Z,7.21
2018-12-21T10:52:16.420Z,7.18
2018-12-21T10:54:42.914Z,7.04
2018-12-21T10:57:09.497Z,7.57
2018-12-21T10:59:43.217Z,7.71
2018-12-21T11:02:04.552Z,7.83
2018-12-21T11:04:31.075Z,7.91
2018-12-21T11:06:57.565Z,7.88
2018-12-21T11:09:24.021Z,7.73
2018-12-21T11:11:50.577Z,7.79
2018-12-21T11:14:17.027Z,8.07
2018-12-21T11:16:43.445Z,7.98
2018-12-21T11:19:09.923Z,7.56
2018-12-21T11:21:36.402Z,7.65
2018-12-21T11:24:02.924Z,7.86
2018-12-21T11:26:29.452Z,7.60
2018-12-21T11:28:55.947Z,7.54
2018-12-21T11:31:22.442Z,7.54
2018-12-21T11:33:50.102Z,7.48
2018-12-21T11:36:17.358Z,7.49
2018-12-21T11:38:44.606Z,7.78
2018-12-21T11:41:11.129Z,7.54
2018-12-21T11:43:37.582Z,7.51
2018-12-21T11:46:04.117Z,7.89
2018-12-21T11:48:30.683Z,7.69
2018-12-21T11:50:57.218Z,7.63
2018-12-21T11:53:23.818Z,7.88
2018-12-21T11:55:50.785Z,7.79
2018-12-21T12:00:54.673Z,7.89
2018-12-21T12:03:21.295Z,7.67
2018-12-21T12:05:47.899Z,7.70
2018-12-21T12:10:47.488Z,7.86
2018-12-21T12:13:14.083Z,7.79
2018-12-21T12:15:40.738Z,7.86
2018-12-21T12:18:10.956Z,7.74
2018-12-21T12:20:37.543Z,7.81
2018-12-21T12:23:04.568Z,7.67
2018-12-21T12:25:31.150Z,7.49
2018-12-21T12:27:57.958Z,7.93
2018-12-21T12:30:24.599Z,7.69
2018-12-21T12:32:51.228Z,7.42
2018-12-21T12:35:17.770Z,7.69
2018-12-21T12:37:44.501Z,7.41
2018-12-21T12:40:10.979Z,7.53
2018-12-21T12:42:37.540Z,7.38
2018-12-21T12:45:04.215Z,7.49
2018-12-21T12:47:30.811Z,7.76
2018-12-21T12:49:57.325Z,7.50
2018-12-21T12:52:23.990Z,7.91
2018-12-21T12:54:50.499Z,7.66
2018-12-21T12:57:17.013Z,7.26
2018-12-21T12:59:43.739Z,7.18
2018-12-21T13:02:10.386Z,7.44
2018-12-21T13:04:36.957Z,7.34
2018-12-21T13:07:03.493Z,7.76
2018-12-21T13:09:30.083Z,7.45
2018-12-21T13:11:56.624Z,7.81
2018-12-21T13:14:23.875Z,8.05
2018-12-21T13:16:50.507Z,7.27
2018-12-21T13:19:17.041Z,7.19
2018-12-21T13:21:43.594Z,6.87
2018-12-21T13:24:10.107Z,7.21
2018-12-21T13:26:36.761Z,7.29
2018-12-21T13:29:03.360Z,7.30
2018-12-21T13:31:29.966Z,7.20
2018-12-21T13:33:56.761Z,7.16
2018-12-21T13:36:24.165Z,6.96
2018-12-21T13:38:50.732Z,6.53
2018-12-21T13:41:17.363Z,6.78
2018-12-21T13:43:43.961Z,6.80
2018-12-21T13:46:10.553Z,7.36
2018-12-21T13:48:37.060Z,7.07
2018-12-21T13:51:03.748Z,7.04
2018-12-21T13:53:30.381Z,7.10
2018-12-21T13:55:56.896Z,7.07
2018-12-21T13:58:24.429Z,7.24
2018-12-21T14:00:51.131Z,7.18
2018-12-21T14:03:17.845Z,7.44
2018-12-21T14:05:44.338Z,7.56
2018-12-21T14:08:10.847Z,7.48
2018-12-21T14:10:37.454Z,7.46
2018-12-21T14:13:03.991Z,7.53
2018-12-21T14:15:30.635Z,7.16
2018-12-21T14:17:57.188Z,7.43
2018-12-21T14:20:24.463Z,7.21
2018-12-21T14:22:54.215Z,7.36
2018-12-21T14:25:28.629Z,7.56
2018-12-21T14:27:49.443Z,7.25
2018-12-21T14:30:16.027Z,7.01
2018-12-21T14:32:42.847Z,7.16
2018-12-21T14:35:15.316Z,7.57
2018-12-21T14:37:42.156Z,7.09
2018-12-21T14:40:08.702Z,6.94
2018-12-21T14:42:35.452Z,6.77
2018-12-21T14:45:44.373Z,7.14
2018-12-21T14:48:10.884Z,7.30
2018-12-21T14:50:37.409Z,6.84
2018-12-21T14:53:07.451Z,6.35
2018-12-21T14:55:39.422Z,6.41
2018-12-21T14:58:05.985Z,6.46
2018-12-21T15:00:32.459Z,6.57
2018-12-21T15:03:00.057Z,6.50
2018-12-21T15:05:26.549Z,6.92
2018-12-21T15:07:53.020Z,6.62
2018-12-21T15:10:19.496Z,6.69
2018-12-21T15:12:49.223Z,7.05
2018-12-21T15:15:15.710Z,7.26
2018-12-21T15:17:42.167Z,7.06
2018-12-21T15:20:08.702Z,7.10
2018-12-21T15:22:35.215Z,7.20
2018-12-21T15:25:01.692Z,7.32
2018-12-21T15:27:28.205Z,7.29
2018-12-21T15:29:55.430Z,7.07
2018-12-21T15:32:21.988Z,7.16
2018-12-21T15:34:49.479Z,7.15
2018-12-21T15:37:16.827Z,6.85
2018-12-21T15:39:43.349Z,6.65
2018-12-21T15:42:09.844Z,6.23
2018-12-21T15:44:36.319Z,6.06
2018-12-21T15:47:09.034Z,6.30
2018-12-21T15:49:31.258Z,6.48
2018-12-21T15:51:57.760Z,6.54
2018-12-21T15:54:25.313Z,7.02
2018-12-21T15:56:51.810Z,7.03
2018-12-21T15:59:18.327Z,6.85
2018-12-21T16:01:44.839Z,7.09
2018-12-21T16:04:11.428Z,7.22
2018-12-21T16:06:37.931Z,7.09
2018-12-21T16:09:05.165Z,6.92
2018-12-21T16:11:31.650Z,6.99
2018-12-21T16:14:01.734Z,6.95
2018-12-21T16:16:29.387Z,6.92
2018-12-21T16:18:56.571Z,6.86
2018-12-21T16:21:23.086Z,6.64
2018-12-21T16:23:50.437Z,6.40
2018-12-21T16:26:16.919Z,6.19
2018-12-21T16:28:43.445Z,6.58
2018-12-21T16:31:10.636Z,6.58
2018-12-21T16:36:12.080Z,6.31
2018-12-21T16:38:38.668Z,6.15
2018-12-21T16:41:05.936Z,6.26
2018-12-21T16:43:37.280Z,6.21
2018-12-21T16:46:03.854Z,6.10
2018-12-21T16:48:30.425Z,5.51
2018-12-21T16:50:57.280Z,5.81
2018-12-21T16:53:23.789Z,5.90
2018-12-21T16:55:51.129Z,6.18
2018-12-21T16:58:17.652Z,6.63
2018-12-21T17:00:44.107Z,6.77
2018-12-21T17:03:15.631Z,6.74
2018-12-21T17:05:39.915Z,6.76
2018-12-21T17:08:06.454Z,6.41
2018-12-21T17:10:33.004Z,6.02
2018-12-21T17:13:00.355Z,5.61
2018-12-21T17:15:26.953Z,5.86
2018-12-21T17:17:53.566Z,5.84
2018-12-21T17:20:20.085Z,6.05
2018-12-21T17:22:46.576Z,5.81
2018-12-21T17:25:13.100Z,5.23
2018-12-21T17:27:39.650Z,5.47
2018-12-21T17:30:06.497Z,5.67
2018-12-21T17:32:32.989Z,5.74
2018-12-21T17:34:59.541Z,5.36
2018-12-21T17:37:26.135Z,5.60
2018-12-21T17:39:52.635Z,5.83
2018-12-21T17:42:19.139Z,5.62
2018-12-21T17:44:49.308Z,5.57
2018-12-21T17:47:15.815Z,5.88
2018-12-21T17:49:42.399Z,5.70
2018-12-21T17:52:08.881Z,5.56
2018-12-21T17:54:42.085Z,5.52
2018-12-21T17:57:11.590Z,5.28
2018-12-21T17:59:38.087Z,5.48
2018-12-21T18:02:04.588Z,5.95
2018-12-21T18:07:03.324Z,6.13
2018-12-21T18:09:29.921Z,6.17
2018-12-21T18:11:57.319Z,5.54
2018-12-21T18:14:25.730Z,5.60
2018-12-21T18:16:52.256Z,6.03
2018-12-21T18:19:18.756Z,5.79
2018-12-21T18:21:45.263Z,5.74
2018-12-21T18:24:11.758Z,5.77
2018-12-21T18:26:39.296Z,5.85
2018-12-21T18:29:05.986Z,5.38
2018-12-21T18:31:32.495Z,5.08
2018-12-21T18:33:59.031Z,5.01
2018-12-21T18:36:25.779Z,5.27
2018-12-21T18:38:52.284Z,4.93
2018-12-21T18:41:18.785Z,4.78
2018-12-21T18:43:45.246Z,4.79
2018-12-21T18:46:11.736Z,5.13
2018-12-21T18:48:38.276Z,5.41
2018-12-21T18:51:04.747Z,5.49
2018-12-21T18:53:31.226Z,5.26
2018-12-21T18:55:57.787Z,4.80
2018-12-21T18:58:24.249Z,4.64
2018-12-21T19:00:50.954Z,5.19
2018-12-21T19:03:17.539Z,5.60
2018-12-21T19:05:45.055Z,6.17
2018-12-21T19:08:11.607Z,6.16
2018-12-21T19:10:38.126Z,6.38
2018-12-21T19:13:04.621Z,6.79
2018-12-21T19:15:31.411Z,6.39
2018-12-21T19:18:04.565Z,6.12
2018-12-21T19:20:37.619Z,6.08
2018-12-21T19:23:04.114Z,6.18
2018-12-21T19:25:34.404Z,6.22
2018-12-21T19:28:00.908Z,6.39
2018-12-21T19:30:27.475Z,6.46
2018-12-21T19:32:54.731Z,6.71
2018-12-21T19:37:52.351Z,6.76
2018-12-21T19:40:18.918Z,6.42
2018-12-21T19:42:45.392Z,6.07
2018-12-21T19:45:15.246Z,5.76
2018-12-21T19:47:41.735Z,5.99
2018-12-21T19:50:08.234Z,5.96
2018-12-21T19:52:34.806Z,5.53
2018-12-21T19:55:01.305Z,5.52
2018-12-21T19:57:27.805Z,5.59
2018-12-21T19:59:54.417Z,5.63
2018-12-21T20:02:20.934Z,5.71
2018-12-21T20:04:47.443Z,5.44
2018-12-21T20:07:14.586Z,4.90
2018-12-21T20:09:41.086Z,4.88
2018-12-21T20:12:07.549Z,4.82
2018-12-21T20:14:34.909Z,4.89
2018-12-21T20:17:01.506Z,5.10
2018-12-21T20:19:27.970Z,5.15
2018-12-21T20:21:54.486Z,5.24
2018-12-21T20:24:23.123Z,5.01
2018-12-21T20:26:49.639Z,4.52
2018-12-21T20:29:16.144Z,4.65
2018-12-21T20:31:42.699Z,4.75
2018-12-21T20:34:09.324Z,5.03
2018-12-21T20:36:35.804Z,5.03
2018-12-21T20:39:02.389Z,5.25
2018-12-21T20:41:29.112Z,5.42
2018-12-21T20:43:56.046Z,5.30
2018-12-21T20:46:24.768Z,5.40
2018-12-21T20:48:51.261Z,5.52
2018-12-21T20:51:17.744Z,5.62
2018-12-21T20:53:44.436Z,5.18
2018-12-21T20:56:16.060Z,5.13
2018-12-21T20:58:45.556Z,5.12
2018-12-21T21:01:12.109Z,4.89
2018-12-21T21:03:38.560Z,4.82
2018-12-21T21:06:05.182Z,5.13
2018-12-21T21:08:32.177Z,4.87
2018-12-21T21:10:58.722Z,4.98
2018-12-21T21:13:25.198Z,4.60
2018-12-21T21:15:51.729Z,4.78
2018-12-21T21:18:18.364Z,4.93
2018-12-21T21:20:44.874Z,5.09
2018-12-21T21:23:11.591Z,4.99
2018-12-21T21:25:38.242Z,4.80
2018-12-21T21:28:04.740Z,5.01
2018-12-21T21:30:31.300Z,5.03
2018-12-21T21:32:57.778Z,4.99
2018-12-21T21:35:24.389Z,5.05
2018-12-21T21:37:50.854Z,5.06
2018-12-21T21:40:17.388Z,5.51
2018-12-21T21:42:43.926Z,5.29
2018-12-21T21:45:11.024Z,5.21
2018-12-21T21:47:37.563Z,5.48
2018-12-21T21:50:04.093Z,5.63
2018-12-21T21:52:30.550Z,5.35
2018-12-21T21:54:57.077Z,5.50
2018-12-21T21:57:24.935Z,5.54
2018-12-21T21:59:51.443Z,5.55
2018-12-21T22:02:18.003Z,6.04
2018-12-21T22:04:45.548Z,6.11
2018-12-21T22:07:12.139Z,5.87
2018-12-21T22:09:38.730Z,5.57
2018-12-21T22:12:05.182Z,5.62
2018-12-21T22:14:31.743Z,5.44
2018-12-21T22:16:58.248Z,5.41
2018-12-21T22:19:24.733Z,4.92
2018-12-21T22:21:51.310Z,4.59
2018-12-21T22:24:17.792Z,4.22
2018-12-21T22:26:48.241Z,4.15
2018-12-21T22:29:14.709Z,4.48
2018-12-21T22:31:41.397Z,4.91
2018-12-21T22:34:07.959Z,4.97
2018-12-21T22:36:34.435Z,5.13
2018-12-21T22:39:01.053Z,5.16
2018-12-21T22:41:27.836Z,5.17
2018-12-21T22:43:54.353Z,4.79
2018-12-21T22:46:20.857Z,4.40
2018-12-21T22:48:47.973Z,4.16
2018-12-21T22:51:14.475Z,4.28
2018-12-21T22:53:41.513Z,4.05
2018-12-21T22:56:08.221Z,4.30
2018-12-21T22:58:34.874Z,4.49
2018-12-21T23:01:01.540Z,4.79
2018-12-21T23:03:28.015Z,4.55
2018-12-21T23:05:54.580Z,4.38
2018-12-21T23:08:21.172Z,4.56
2018-12-21T23:10:47.688Z,4.82
2018-12-21T23:13:14.152Z,4.83
2018-12-21T23:15:41.741Z,4.44
2018-12-21T23:18:08.267Z,4.47
2018-12-21T23:20:34.724Z,4.19
2018-12-21T23:23:01.285Z,3.93
2018-12-21T23:25:27.845Z,4.35
2018-12-21T23:27:54.377Z,4.33
2018-12-21T23:30:20.832Z,3.85
2018-12-21T23:32:47.385Z,3.94
2018-12-21T23:35:13.867Z,3.92
2018-12-21T23:37:40.880Z,3.80
2018-12-21T23:40:07.347Z,3.77
2018-12-21T23:42:33.851Z,4.10
2018-12-21T23:45:00.660Z,4.23
2018-12-21T23:47:30.899Z,4.33
2018-12-21T23:49:57.556Z,4.38
2018-12-21T23:52:24.308Z,4.58
2018-12-21T23:54:50.851Z,4.41
2018-12-21T23:57:17.384Z,4.46
2018-12-21T23:59:44.286Z,4.54
